sensor_id;sensor_type;location;lat;lon;timestamp;P1;durP1;ratioP1;P2;durP2;ratioP2
35456;SDS011;21575;51.538;-0.084;2022-12-18T00:01:17;65.20;;;51.90;;
35456;SDS011;21575;51.538;-0.084;2022-12-18T00:03:44;102.82;;;80.47;;
35456;SDS011;21575;51.538;-0.084;2022-12-18T00:06:10;68.68;;;53.45;;
35456;SDS011;21575;51.538;-0.084;2022-12-18T00:08:37;115.63;;;90.25;;
35456;SDS011;21575;51.538;-0.084;2022-12-18T00:11:06;85.03;;;59.00;;
35456;SDS011;21575;51.538;-0.084;2022-12-18T00:13:33;68.35;;;44.85;;
35456;SDS011;21575;51.538;-0.084;2022-12-18T00:16:03;61.67;;;40.88;;
35456;SDS011;21575;51.538;-0.084;2022-12-18T00:18:30;53.28;;;30.50;;
35456;SDS011;21575;51.538;-0.084;2022-12-18T00:21:00;44.80;;;27.42;;
35456;SDS011;21575;51.538;-0.084;2022-12-18T00:23:28;56.30;;;36.35;;
35456;SDS011;21575;51.538;-0.084;2022-12-18T00:25:54;50.08;;;29.88;;
35456;SDS011;21575;51.538;-0.084;2022-12-18T00:28:23;54.25;;;33.55;;
35456;SDS011;21575;51.538;-0.084;2022-12-18T00:30:49;48.38;;;31.48;;
35456;SDS011;21575;51.538;-0.084;2022-12-18T00:33:16;43.95;;;29.48;;
35456;SDS011;21575;51.538;-0.084;2022-12-18T00:35:42;49.88;;;29.60;;
35456;SDS011;21575;51.538;-0.084;2022-12-18T00:38:08;45.05;;;26.98;;
35456;SDS011;21575;51.538;-0.084;2022-12-18T00:40:33;52.55;;;32.35;;
35456;SDS011;21575;51.538;-0.084;2022-12-18T00:42:59;42.63;;;25.45;;
35456;SDS011;21575;51.538;-0.084;2022-12-18T00:45:26;45.42;;;30.40;;
35456;SDS011;21575;51.538;-0.084;2022-12-18T00:47:53;44.45;;;27.58;;
35456;SDS011;21575;51.538;-0.084;2022-12-18T00:50:19;44.25;;;25.65;;
35456;SDS011;21575;51.538;-0.084;2022-12-18T00:52:46;55.85;;;30.42;;
35456;SDS011;21575;51.538;-0.084;2022-12-18T00:55:12;50.00;;;29.90;;
35456;SDS011;21575;51.538;-0.084;2022-12-18T00:57:38;53.35;;;32.92;;
35456;SDS011;21575;51.538;-0.084;2022-12-18T01:00:04;53.67;;;31.80;;
35456;SDS011;21575;51.538;-0.084;2022-12-18T01:02:31;45.70;;;29.27;;
35456;SDS011;21575;51.538;-0.084;2022-12-18T01:04:57;46.45;;;26.92;;
35456;SDS011;21575;51.538;-0.084;2022-12-18T01:07:23;42.70;;;25.35;;
35456;SDS011;21575;51.538;-0.084;2022-12-18T01:09:48;48.65;;;30.38;;
35456;SDS011;21575;51.538;-0.084;2022-12-18T01:12:14;52.42;;;29.92;;
35456;SDS011;21575;51.538;-0.084;2022-12-18T01:14:39;51.97;;;29.45;;
35456;SDS011;21575;51.538;-0.084;2022-12-18T01:17:05;65.72;;;44.72;;
35456;SDS011;21575;51.538;-0.084;2022-12-18T01:19:31;46.25;;;27.08;;
35456;SDS011;21575;51.538;-0.084;2022-12-18T01:21:56;43.55;;;25.20;;
35456;SDS011;21575;51.538;-0.084;2022-12-18T01:24:22;42.50;;;25.05;;
35456;SDS011;21575;51.538;-0.084;2022-12-18T01:26:48;54.70;;;33.40;;
35456;SDS011;21575;51.538;-0.084;2022-12-18T01:29:14;49.53;;;28.02;;
35456;SDS011;21575;51.538;-0.084;2022-12-18T01:31:39;55.40;;;32.45;;
35456;SDS011;21575;51.538;-0.084;2022-12-18T01:34:05;42.80;;;22.83;;
35456;SDS011;21575;51.538;-0.084;2022-12-18T01:36:32;60.95;;;40.05;;
35456;SDS011;21575;51.538;-0.084;2022-12-18T01:38:59;47.25;;;26.10;;
35456;SDS011;21575;51.538;-0.084;2022-12-18T01:41:27;50.55;;;29.50;;
35456;SDS011;21575;51.538;-0.084;2022-12-18T01:47:27;40.10;;;26.40;;
35456;SDS011;21575;51.538;-0.084;2022-12-18T01:49:57;49.50;;;27.42;;
35456;SDS011;21575;51.538;-0.084;2022-12-18T01:52:26;50.88;;;27.83;;
35456;SDS011;21575;51.538;-0.084;2022-12-18T01:54:54;53.20;;;30.23;;
35456;SDS011;21575;51.538;-0.084;2022-12-18T01:57:20;47.50;;;26.58;;
35456;SDS011;21575;51.538;-0.084;2022-12-18T01:59:47;44.90;;;23.80;;
35456;SDS011;21575;51.538;-0.084;2022-12-18T02:02:17;50.22;;;31.95;;
35456;SDS011;21575;51.538;-0.084;2022-12-18T02:04:44;50.17;;;27.80;;
35456;SDS011;21575;51.538;-0.084;2022-12-18T02:12:21;49.35;;;27.10;;
35456;SDS011;21575;51.538;-0.084;2022-12-18T02:14:53;43.05;;;24.88;;
35456;SDS011;21575;51.538;-0.084;2022-12-18T02:20:13;49.97;;;28.80;;
35456;SDS011;21575;51.538;-0.084;2022-12-18T02:28:40;47.97;;;26.30;;
35456;SDS011;21575;51.538;-0.084;2022-12-18T02:31:11;45.00;;;27.42;;
35456;SDS011;21575;51.538;-0.084;2022-12-18T02:33:40;44.72;;;26.08;;
35456;SDS011;21575;51.538;-0.084;2022-12-18T02:36:08;39.97;;;25.42;;
35456;SDS011;21575;51.538;-0.084;2022-12-18T02:38:36;46.65;;;27.83;;
35456;SDS011;21575;51.538;-0.084;2022-12-18T02:41:02;50.05;;;29.08;;
35456;SDS011;21575;51.538;-0.084;2022-12-18T02:43:29;45.80;;;24.98;;
35456;SDS011;21575;51.538;-0.084;2022-12-18T02:45:58;39.70;;;21.08;;
35456;SDS011;21575;51.538;-0.084;2022-12-18T02:48:34;42.30;;;23.38;;
35456;SDS011;21575;51.538;-0.084;2022-12-18T02:53:40;40.22;;;23.30;;
35456;SDS011;21575;51.538;-0.084;2022-12-18T02:56:29;47.65;;;25.83;;
35456;SDS011;21575;51.538;-0.084;2022-12-18T02:59:08;48.15;;;23.65;;
35456;SDS011;21575;51.538;-0.084;2022-12-18T03:01:49;48.80;;;27.48;;
35456;SDS011;21575;51.538;-0.084;2022-12-18T03:04:25;44.00;;;26.08;;
35456;SDS011;21575;51.538;-0.084;2022-12-18T03:06:53;36.33;;;21.30;;
35456;SDS011;21575;51.538;-0.084;2022-12-18T03:09:41;38.75;;;20.48;;
35456;SDS011;21575;51.538;-0.084;2022-12-18T03:14:55;39.60;;;19.67;;
35456;SDS011;21575;51.538;-0.084;2022-12-18T03:17:30;49.63;;;27.50;;
35456;SDS011;21575;51.538;-0.084;2022-12-18T03:19:58;137.40;;;83.75;;
35456;SDS011;21575;51.538;-0.084;2022-12-18T03:22:29;50.13;;;30.63;;
35456;SDS011;21575;51.538;-0.084;2022-12-18T03:24:57;56.78;;;38.72;;
35456;SDS011;21575;51.538;-0.084;2022-12-18T03:27:26;81.85;;;55.67;;
35456;SDS011;21575;51.538;-0.084;2022-12-18T03:30:01;66.72;;;41.88;;
35456;SDS011;21575;51.538;-0.084;2022-12-18T03:32:33;87.65;;;53.33;;
35456;SDS011;21575;51.538;-0.084;2022-12-18T03:35:05;70.40;;;50.88;;
35456;SDS011;21575;51.538;-0.084;2022-12-18T03:37:33;72.65;;;35.75;;
35456;SDS011;21575;51.538;-0.084;2022-12-18T03:39:59;53.72;;;30.52;;
35456;SDS011;21575;51.538;-0.084;2022-12-18T03:45:08;49.47;;;32.58;;
35456;SDS011;21575;51.538;-0.084;2022-12-18T03:50:55;45.33;;;26.15;;
35456;SDS011;21575;51.538;-0.084;2022-12-18T03:56:01;37.45;;;18.88;;
35456;SDS011;21575;51.538;-0.084;2022-12-18T03:58:29;47.03;;;31.88;;
35456;SDS011;21575;51.538;-0.084;2022-12-18T04:01:00;37.53;;;20.70;;
35456;SDS011;21575;51.538;-0.084;2022-12-18T04:03:28;35.20;;;19.73;;
35456;SDS011;21575;51.538;-0.084;2022-12-18T04:05:56;35.15;;;20.00;;
35456;SDS011;21575;51.538;-0.084;2022-12-18T04:08:26;33.08;;;18.90;;
35456;SDS011;21575;51.538;-0.084;2022-12-18T04:10:52;37.85;;;20.77;;
35456;SDS011;21575;51.538;-0.084;2022-12-18T04:13:21;32.10;;;18.90;;
35456;SDS011;21575;51.538;-0.084;2022-12-18T04:16:07;36.20;;;20.83;;
35456;SDS011;21575;51.538;-0.084;2022-12-18T04:18:34;34.72;;;20.55;;
35456;SDS011;21575;51.538;-0.084;2022-12-18T04:21:00;36.10;;;23.50;;
35456;SDS011;21575;51.538;-0.084;2022-12-18T04:23:26;37.03;;;21.20;;
35456;SDS011;21575;51.538;-0.084;2022-12-18T04:25:52;34.08;;;18.77;;
35456;SDS011;21575;51.538;-0.084;2022-12-18T04:28:17;34.03;;;19.27;;
35456;SDS011;21575;51.538;-0.084;2022-12-18T04:30:43;35.47;;;19.98;;
35456;SDS011;21575;51.538;-0.084;2022-12-18T04:33:10;34.30;;;18.02;;
35456;SDS011;21575;51.538;-0.084;2022-12-18T04:35:36;32.97;;;18.10;;
35456;SDS011;21575;51.538;-0.084;2022-12-18T04:38:02;37.72;;;18.88;;
35456;SDS011;21575;51.538;-0.084;2022-12-18T04:40:28;36.22;;;19.45;;
35456;SDS011;21575;51.538;-0.084;2022-12-18T04:42:53;35.08;;;21.80;;
35456;SDS011;21575;51.538;-0.084;2022-12-18T04:45:19;35.70;;;19.77;;
35456;SDS011;21575;51.538;-0.084;2022-12-18T04:47:44;33.60;;;18.45;;
35456;SDS011;21575;51.538;-0.084;2022-12-18T04:50:10;35.05;;;18.02;;
35456;SDS011;21575;51.538;-0.084;2022-12-18T04:52:36;35.08;;;18.33;;
35456;SDS011;21575;51.538;-0.084;2022-12-18T04:55:01;38.42;;;19.20;;
35456;SDS011;21575;51.538;-0.084;2022-12-18T04:57:28;28.77;;;15.68;;
35456;SDS011;21575;51.538;-0.084;2022-12-18T04:59:53;31.20;;;17.05;;
35456;SDS011;21575;51.538;-0.084;2022-12-18T05:02:19;35.10;;;17.15;;
35456;SDS011;21575;51.538;-0.084;2022-12-18T05:04:45;33.85;;;17.92;;
35456;SDS011;21575;51.538;-0.084;2022-12-18T05:07:10;28.45;;;17.33;;
35456;SDS011;21575;51.538;-0.084;2022-12-18T05:09:36;33.75;;;18.25;;
35456;SDS011;21575;51.538;-0.084;2022-12-18T05:12:01;30.05;;;18.42;;
35456;SDS011;21575;51.538;-0.084;2022-12-18T05:14:27;29.02;;;17.38;;
35456;SDS011;21575;51.538;-0.084;2022-12-18T05:16:54;30.60;;;18.08;;
35456;SDS011;21575;51.538;-0.084;2022-12-18T05:19:20;31.73;;;17.60;;
35456;SDS011;21575;51.538;-0.084;2022-12-18T05:21:45;33.15;;;17.85;;
35456;SDS011;21575;51.538;-0.084;2022-12-18T05:24:11;30.55;;;17.92;;
35456;SDS011;21575;51.538;-0.084;2022-12-18T05:26:37;39.88;;;17.67;;
35456;SDS011;21575;51.538;-0.084;2022-12-18T05:29:02;33.08;;;17.05;;
35456;SDS011;21575;51.538;-0.084;2022-12-18T05:31:28;30.90;;;17.80;;
35456;SDS011;21575;51.538;-0.084;2022-12-18T05:33:54;31.05;;;17.67;;
35456;SDS011;21575;51.538;-0.084;2022-12-18T05:36:19;28.50;;;17.17;;
35456;SDS011;21575;51.538;-0.084;2022-12-18T05:38:45;29.08;;;16.90;;
35456;SDS011;21575;51.538;-0.084;2022-12-18T05:41:10;29.85;;;17.52;;
35456;SDS011;21575;51.538;-0.084;2022-12-18T05:43:37;30.02;;;18.05;;
35456;SDS011;21575;51.538;-0.084;2022-12-18T05:46:08;28.17;;;16.38;;
35456;SDS011;21575;51.538;-0.084;2022-12-18T05:51:12;27.38;;;16.35;;
35456;SDS011;21575;51.538;-0.084;2022-12-18T05:53:41;28.27;;;16.73;;
35456;SDS011;21575;51.538;-0.084;2022-12-18T05:56:08;36.03;;;18.23;;
35456;SDS011;21575;51.538;-0.084;2022-12-18T05:58:36;31.70;;;17.63;;
35456;SDS011;21575;51.538;-0.084;2022-12-18T06:01:09;29.15;;;17.58;;
35456;SDS011;21575;51.538;-0.084;2022-12-18T06:03:37;31.23;;;15.90;;
35456;SDS011;21575;51.538;-0.084;2022-12-18T06:06:03;31.58;;;20.02;;
35456;SDS011;21575;51.538;-0.084;2022-12-18T06:08:29;39.65;;;22.77;;
35456;SDS011;21575;51.538;-0.084;2022-12-18T06:10:55;36.50;;;22.70;;
35456;SDS011;21575;51.538;-0.084;2022-12-18T06:13:20;43.30;;;25.55;;
35456;SDS011;21575;51.538;-0.084;2022-12-18T06:15:46;69.90;;;39.80;;
35456;SDS011;21575;51.538;-0.084;2022-12-18T06:18:12;37.80;;;22.17;;
35456;SDS011;21575;51.538;-0.084;2022-12-18T06:20:38;36.88;;;23.05;;
35456;SDS011;21575;51.538;-0.084;2022-12-18T06:23:05;35.28;;;20.45;;
35456;SDS011;21575;51.538;-0.084;2022-12-18T06:25:31;33.30;;;18.50;;
35456;SDS011;21575;51.538;-0.084;2022-12-18T06:27:57;35.42;;;22.10;;
35456;SDS011;21575;51.538;-0.084;2022-12-18T06:30:22;34.22;;;20.55;;
35456;SDS011;21575;51.538;-0.084;2022-12-18T06:32:48;36.47;;;22.17;;
35456;SDS011;21575;51.538;-0.084;2022-12-18T06:35:14;30.70;;;22.00;;
35456;SDS011;21575;51.538;-0.084;2022-12-18T06:37:40;30.17;;;18.17;;
35456;SDS011;21575;51.538;-0.084;2022-12-18T06:40:06;32.15;;;18.77;;
35456;SDS011;21575;51.538;-0.084;2022-12-18T06:42:32;39.10;;;21.75;;
35456;SDS011;21575;51.538;-0.084;2022-12-18T06:44:58;28.08;;;16.50;;
35456;SDS011;21575;51.538;-0.084;2022-12-18T06:47:23;28.38;;;17.80;;
35456;SDS011;21575;51.538;-0.084;2022-12-18T06:49:49;36.85;;;18.45;;
35456;SDS011;21575;51.538;-0.084;2022-12-18T06:52:15;29.20;;;18.65;;
35456;SDS011;21575;51.538;-0.084;2022-12-18T06:54:40;28.42;;;16.98;;
35456;SDS011;21575;51.538;-0.084;2022-12-18T06:57:06;34.55;;;20.20;;
35456;SDS011;21575;51.538;-0.084;2022-12-18T06:59:32;28.90;;;18.23;;
35456;SDS011;21575;51.538;-0.084;2022-12-18T07:01:58;30.92;;;17.17;;
35456;SDS011;21575;51.538;-0.084;2022-12-18T07:04:29;28.17;;;17.48;;
35456;SDS011;21575;51.538;-0.084;2022-12-18T07:06:55;29.70;;;18.00;;
35456;SDS011;21575;51.538;-0.084;2022-12-18T07:09:21;30.73;;;17.60;;
35456;SDS011;21575;51.538;-0.084;2022-12-18T07:11:46;29.75;;;16.65;;
35456;SDS011;21575;51.538;-0.084;2022-12-18T07:14:12;29.17;;;16.60;;
35456;SDS011;21575;51.538;-0.084;2022-12-18T07:16:37;25.15;;;14.93;;
35456;SDS011;21575;51.538;-0.084;2022-12-18T07:19:03;26.65;;;16.48;;
35456;SDS011;21575;51.538;-0.084;2022-12-18T07:21:29;25.08;;;16.10;;
35456;SDS011;21575;51.538;-0.084;2022-12-18T07:23:55;27.33;;;15.02;;
35456;SDS011;21575;51.538;-0.084;2022-12-18T07:26:21;25.92;;;16.15;;
35456;SDS011;21575;51.538;-0.084;2022-12-18T07:28:47;33.25;;;17.98;;
35456;SDS011;21575;51.538;-0.084;2022-12-18T07:31:17;26.10;;;16.38;;
35456;SDS011;21575;51.538;-0.084;2022-12-18T07:33:45;28.53;;;16.50;;
35456;SDS011;21575;51.538;-0.084;2022-12-18T07:36:11;25.70;;;15.93;;
35456;SDS011;21575;51.538;-0.084;2022-12-18T07:38:38;25.05;;;14.27;;
35456;SDS011;21575;51.538;-0.084;2022-12-18T07:41:05;25.73;;;16.02;;
35456;SDS011;21575;51.538;-0.084;2022-12-18T07:43:31;26.95;;;15.80;;
35456;SDS011;21575;51.538;-0.084;2022-12-18T07:45:57;33.42;;;19.23;;
35456;SDS011;21575;51.538;-0.084;2022-12-18T07:48:23;23.42;;;14.40;;
35456;SDS011;21575;51.538;-0.084;2022-12-18T07:50:48;32.70;;;19.10;;
35456;SDS011;21575;51.538;-0.084;2022-12-18T07:53:14;23.23;;;14.57;;
35456;SDS011;21575;51.538;-0.084;2022-12-18T07:55:40;24.75;;;15.80;;
35456;SDS011;21575;51.538;-0.084;2022-12-18T07:58:07;24.13;;;15.55;;
35456;SDS011;21575;51.538;-0.084;2022-12-18T08:00:33;26.92;;;15.57;;
35456;SDS011;21575;51.538;-0.084;2022-12-18T08:02:59;27.30;;;16.00;;
35456;SDS011;21575;51.538;-0.084;2022-12-18T08:05:25;32.28;;;16.73;;
35456;SDS011;21575;51.538;-0.084;2022-12-18T08:07:52;29.38;;;15.70;;
35456;SDS011;21575;51.538;-0.084;2022-12-18T08:10:18;25.13;;;15.65;;
35456;SDS011;21575;51.538;-0.084;2022-12-18T08:12:44;32.33;;;15.63;;
35456;SDS011;21575;51.538;-0.084;2022-12-18T08:15:10;27.77;;;16.77;;
35456;SDS011;21575;51.538;-0.084;2022-12-18T08:17:36;26.15;;;15.65;;
35456;SDS011;21575;51.538;-0.084;2022-12-18T08:20:02;27.25;;;19.20;;
35456;SDS011;21575;51.538;-0.084;2022-12-18T08:22:27;25.65;;;14.05;;
35456;SDS011;21575;51.538;-0.084;2022-12-18T08:24:53;29.73;;;16.23;;
35456;SDS011;21575;51.538;-0.084;2022-12-18T08:27:19;28.98;;;19.55;;
35456;SDS011;21575;51.538;-0.084;2022-12-18T08:29:44;23.95;;;15.45;;
35456;SDS011;21575;51.538;-0.084;2022-12-18T08:32:10;34.33;;;20.00;;
35456;SDS011;21575;51.538;-0.084;2022-12-18T08:34:36;27.65;;;17.23;;
35456;SDS011;21575;51.538;-0.084;2022-12-18T08:37:01;26.00;;;15.75;;
35456;SDS011;21575;51.538;-0.084;2022-12-18T08:39:27;26.20;;;15.13;;
35456;SDS011;21575;51.538;-0.084;2022-12-18T08:41:53;26.98;;;15.88;;
35456;SDS011;21575;51.538;-0.084;2022-12-18T08:44:37;25.02;;;15.48;;
35456;SDS011;21575;51.538;-0.084;2022-12-18T08:47:02;27.17;;;16.70;;
35456;SDS011;21575;51.538;-0.084;2022-12-18T08:49:28;27.13;;;16.05;;
35456;SDS011;21575;51.538;-0.084;2022-12-18T08:51:54;42.47;;;27.95;;
35456;SDS011;21575;51.538;-0.084;2022-12-18T08:54:22;27.05;;;15.73;;
35456;SDS011;21575;51.538;-0.084;2022-12-18T08:56:48;29.08;;;16.92;;
35456;SDS011;21575;51.538;-0.084;2022-12-18T08:59:15;29.15;;;16.73;;
35456;SDS011;21575;51.538;-0.084;2022-12-18T09:01:44;25.50;;;15.27;;
35456;SDS011;21575;51.538;-0.084;2022-12-18T09:04:10;26.20;;;16.48;;
35456;SDS011;21575;51.538;-0.084;2022-12-18T09:06:36;25.92;;;16.25;;
35456;SDS011;21575;51.538;-0.084;2022-12-18T09:09:03;29.48;;;15.80;;
35456;SDS011;21575;51.538;-0.084;2022-12-18T09:11:30;26.85;;;16.38;;
35456;SDS011;21575;51.538;-0.084;2022-12-18T09:13:56;23.88;;;15.32;;
35456;SDS011;21575;51.538;-0.084;2022-12-18T09:16:23;31.55;;;16.45;;
35456;SDS011;21575;51.538;-0.084;2022-12-18T09:18:50;40.15;;;25.05;;
35456;SDS011;21575;51.538;-0.084;2022-12-18T09:21:17;68.45;;;46.67;;
35456;SDS011;21575;51.538;-0.084;2022-12-18T09:23:48;29.30;;;19.80;;
35456;SDS011;21575;51.538;-0.084;2022-12-18T09:26:15;55.55;;;36.92;;
35456;SDS011;21575;51.538;-0.084;2022-12-18T09:28:41;38.42;;;30.50;;
35456;SDS011;21575;51.538;-0.084;2022-12-18T09:31:08;29.83;;;20.58;;
35456;SDS011;21575;51.538;-0.084;2022-12-18T09:33:35;70.40;;;50.20;;
35456;SDS011;21575;51.538;-0.084;2022-12-18T09:36:05;79.82;;;49.03;;
35456;SDS011;21575;51.538;-0.084;2022-12-18T09:38:33;34.88;;;23.77;;
35456;SDS011;21575;51.538;-0.084;2022-12-18T09:41:00;44.20;;;30.67;;
35456;SDS011;21575;51.538;-0.084;2022-12-18T09:46:06;28.27;;;19.98;;
35456;SDS011;21575;51.538;-0.084;2022-12-18T09:48:35;70.40;;;45.05;;
35456;SDS011;21575;51.538;-0.084;2022-12-18T09:51:16;51.10;;;32.85;;
35456;SDS011;21575;51.538;-0.084;2022-12-18T09:53:47;37.92;;;26.20;;
35456;SDS011;21575;51.538;-0.084;2022-12-18T09:56:19;85.25;;;64.28;;
35456;SDS011;21575;51.538;-0.084;2022-12-18T10:01:24;31.77;;;20.08;;
35456;SDS011;21575;51.538;-0.084;2022-12-18T10:03:50;34.90;;;27.35;;
35456;SDS011;21575;51.538;-0.084;2022-12-18T10:14:01;32.00;;;19.08;;
35456;SDS011;21575;51.538;-0.084;2022-12-18T10:16:52;36.95;;;21.98;;
35456;SDS011;21575;51.538;-0.084;2022-12-18T10:19:41;32.60;;;19.33;;
35456;SDS011;21575;51.538;-0.084;2022-12-18T10:28:14;27.60;;;17.25;;
35456;SDS011;21575;51.538;-0.084;2022-12-18T10:30:42;32.92;;;19.33;;
35456;SDS011;21575;51.538;-0.084;2022-12-18T10:33:11;82.55;;;55.65;;
35456;SDS011;21575;51.538;-0.084;2022-12-18T10:35:47;51.60;;;40.95;;
35456;SDS011;21575;51.538;-0.084;2022-12-18T10:41:26;30.95;;;19.35;;
35456;SDS011;21575;51.538;-0.084;2022-12-18T10:44:10;34.03;;;19.70;;
35456;SDS011;21575;51.538;-0.084;2022-12-18T10:46:55;31.17;;;19.30;;
35456;SDS011;21575;51.538;-0.084;2022-12-18T10:49:29;28.75;;;18.33;;
35456;SDS011;21575;51.538;-0.084;2022-12-18T10:54:59;29.70;;;18.17;;
35456;SDS011;21575;51.538;-0.084;2022-12-18T11:00:00;28.42;;;18.80;;
35456;SDS011;21575;51.538;-0.084;2022-12-18T11:02:45;43.78;;;30.30;;
35456;SDS011;21575;51.538;-0.084;2022-12-18T11:05:24;51.60;;;37.58;;
35456;SDS011;21575;51.538;-0.084;2022-12-18T11:08:02;39.50;;;23.60;;
35456;SDS011;21575;51.538;-0.084;2022-12-18T11:10:30;40.38;;;28.08;;
35456;SDS011;21575;51.538;-0.084;2022-12-18T11:16:03;32.95;;;19.08;;
35456;SDS011;21575;51.538;-0.084;2022-12-18T11:18:30;31.05;;;19.85;;
35456;SDS011;21575;51.538;-0.084;2022-12-18T11:21:00;30.45;;;18.35;;
35456;SDS011;21575;51.538;-0.084;2022-12-18T11:23:32;33.95;;;22.27;;
35456;SDS011;21575;51.538;-0.084;2022-12-18T11:25:59;30.67;;;22.60;;
35456;SDS011;21575;51.538;-0.084;2022-12-18T11:31:26;62.63;;;53.28;;
35456;SDS011;21575;51.538;-0.084;2022-12-18T11:33:57;36.50;;;29.23;;
35456;SDS011;21575;51.538;-0.084;2022-12-18T11:36:38;29.38;;;23.58;;
35456;SDS011;21575;51.538;-0.084;2022-12-18T11:39:54;29.73;;;22.42;;
35456;SDS011;21575;51.538;-0.084;2022-12-18T11:42:10;25.77;;;19.50;;
35456;SDS011;21575;51.538;-0.084;2022-12-18T11:47:51;99.28;;;69.45;;
35456;SDS011;21575;51.538;-0.084;2022-12-18T11:50:24;40.78;;;30.15;;
35456;SDS011;21575;51.538;-0.084;2022-12-18T11:53:11;32.15;;;24.13;;
35456;SDS011;21575;51.538;-0.084;2022-12-18T12:04:48;26.45;;;21.52;;
35456;SDS011;21575;51.538;-0.084;2022-12-18T12:24:57;25.65;;;18.23;;
35456;SDS011;21575;51.538;-0.084;2022-12-18T12:30:20;29.52;;;19.50;;
35456;SDS011;21575;51.538;-0.084;2022-12-18T12:38:33;32.67;;;19.45;;
35456;SDS011;21575;51.538;-0.084;2022-12-18T12:41:09;29.52;;;18.42;;
35456;SDS011;21575;51.538;-0.084;2022-12-18T12:44:01;28.75;;;21.27;;
35456;SDS011;21575;51.538;-0.084;2022-12-18T12:46:32;27.85;;;17.60;;
35456;SDS011;21575;51.538;-0.084;2022-12-18T12:49:03;29.67;;;17.20;;
35456;SDS011;21575;51.538;-0.084;2022-12-18T12:51:40;26.73;;;18.98;;
35456;SDS011;21575;51.538;-0.084;2022-12-18T12:54:14;30.25;;;21.00;;
35456;SDS011;21575;51.538;-0.084;2022-12-18T13:15:44;24.83;;;18.05;;
35456;SDS011;21575;51.538;-0.084;2022-12-18T13:20:41;25.90;;;20.00;;
35456;SDS011;21575;51.538;-0.084;2022-12-18T13:25:51;24.45;;;19.10;;
35456;SDS011;21575;51.538;-0.084;2022-12-18T13:28:22;23.67;;;17.50;;
35456;SDS011;21575;51.538;-0.084;2022-12-18T13:31:06;24.92;;;16.92;;
35456;SDS011;21575;51.538;-0.084;2022-12-18T13:33:42;25.30;;;18.08;;
35456;SDS011;21575;51.538;-0.084;2022-12-18T13:36:23;24.40;;;16.23;;
35456;SDS011;21575;51.538;-0.084;2022-12-18T13:41:42;25.30;;;16.40;;
35456;SDS011;21575;51.538;-0.084;2022-12-18T13:46:58;23.13;;;15.90;;
35456;SDS011;21575;51.538;-0.084;2022-12-18T13:52:14;22.17;;;16.70;;
35456;SDS011;21575;51.538;-0.084;2022-12-18T13:54:55;22.67;;;16.55;;
35456;SDS011;21575;51.538;-0.084;2022-12-18T13:57:27;20.80;;;16.45;;
35456;SDS011;21575;51.538;-0.084;2022-12-18T13:59:58;24.40;;;17.20;;
35456;SDS011;21575;51.538;-0.084;2022-12-18T14:02:44;28.40;;;17.02;;
35456;SDS011;21575;51.538;-0.084;2022-12-18T14:08:15;29.42;;;21.52;;
35456;SDS011;21575;51.538;-0.084;2022-12-18T14:10:42;20.92;;;14.85;;
35456;SDS011;21575;51.538;-0.084;2022-12-18T14:13:09;22.73;;;15.77;;
35456;SDS011;21575;51.538;-0.084;2022-12-18T14:15:41;27.38;;;19.65;;
35456;SDS011;21575;51.538;-0.084;2022-12-18T14:18:22;24.67;;;19.35;;
35456;SDS011;21575;51.538;-0.084;2022-12-18T14:21:02;21.17;;;17.60;;
35456;SDS011;21575;51.538;-0.084;2022-12-18T14:23:30;22.13;;;16.95;;
35456;SDS011;21575;51.538;-0.084;2022-12-18T14:26:01;21.17;;;17.13;;
35456;SDS011;21575;51.538;-0.084;2022-12-18T14:28:44;23.33;;;15.90;;
35456;SDS011;21575;51.538;-0.084;2022-12-18T14:31:17;15.88;;;12.32;;
35456;SDS011;21575;51.538;-0.084;2022-12-18T14:33:45;22.77;;;16.63;;
35456;SDS011;21575;51.538;-0.084;2022-12-18T14:36:13;17.73;;;13.38;;
35456;SDS011;21575;51.538;-0.084;2022-12-18T14:38:41;16.55;;;12.93;;
35456;SDS011;21575;51.538;-0.084;2022-12-18T14:41:11;19.27;;;14.90;;
35456;SDS011;21575;51.538;-0.084;2022-12-18T14:43:39;19.77;;;14.48;;
35456;SDS011;21575;51.538;-0.084;2022-12-18T14:48:55;19.20;;;16.13;;
35456;SDS011;21575;51.538;-0.084;2022-12-18T14:51:22;19.63;;;14.68;;
35456;SDS011;21575;51.538;-0.084;2022-12-18T14:53:55;21.52;;;13.57;;
35456;SDS011;21575;51.538;-0.084;2022-12-18T14:56:36;23.02;;;17.25;;
35456;SDS011;21575;51.538;-0.084;2022-12-18T15:01:46;18.05;;;14.43;;
35456;SDS011;21575;51.538;-0.084;2022-12-18T15:07:02;19.92;;;15.93;;
35456;SDS011;21575;51.538;-0.084;2022-12-18T15:12:00;18.13;;;13.88;;
35456;SDS011;21575;51.538;-0.084;2022-12-18T15:16:55;22.67;;;17.77;;
35456;SDS011;21575;51.538;-0.084;2022-12-18T15:19:31;23.25;;;19.77;;
35456;SDS011;21575;51.538;-0.084;2022-12-18T15:22:00;43.03;;;33.53;;
35456;SDS011;21575;51.538;-0.084;2022-12-18T15:24:27;21.50;;;17.15;;
35456;SDS011;21575;51.538;-0.084;2022-12-18T15:26:56;23.55;;;17.45;;
35456;SDS011;21575;51.538;-0.084;2022-12-18T15:29:23;20.67;;;16.08;;
35456;SDS011;21575;51.538;-0.084;2022-12-18T15:32:10;25.10;;;18.92;;
35456;SDS011;21575;51.538;-0.084;2022-12-18T15:34:44;19.08;;;15.88;;
35456;SDS011;21575;51.538;-0.084;2022-12-18T15:37:10;24.23;;;19.00;;
35456;SDS011;21575;51.538;-0.084;2022-12-18T15:39:36;18.90;;;16.90;;
35456;SDS011;21575;51.538;-0.084;2022-12-18T15:42:01;18.52;;;12.85;;
35456;SDS011;21575;51.538;-0.084;2022-12-18T15:44:45;18.08;;;15.43;;
35456;SDS011;21575;51.538;-0.084;2022-12-18T15:47:12;21.63;;;18.67;;
35456;SDS011;21575;51.538;-0.084;2022-12-18T15:49:38;20.25;;;15.73;;
35456;SDS011;21575;51.538;-0.084;2022-12-18T15:52:04;22.40;;;18.45;;
35456;SDS011;21575;51.538;-0.084;2022-12-18T15:54:30;21.92;;;17.25;;
35456;SDS011;21575;51.538;-0.084;2022-12-18T15:57:15;18.35;;;15.85;;
35456;SDS011;21575;51.538;-0.084;2022-12-18T15:59:50;36.60;;;27.25;;
35456;SDS011;21575;51.538;-0.084;2022-12-18T16:02:17;20.35;;;15.23;;
35456;SDS011;21575;51.538;-0.084;2022-12-18T16:04:44;22.90;;;18.60;;
35456;SDS011;21575;51.538;-0.084;2022-12-18T16:07:10;20.42;;;15.43;;
35456;SDS011;21575;51.538;-0.084;2022-12-18T16:09:36;20.98;;;16.75;;
35456;SDS011;21575;51.538;-0.084;2022-12-18T16:12:03;15.45;;;12.48;;
35456;SDS011;21575;51.538;-0.084;2022-12-18T16:14:31;28.60;;;22.63;;
35456;SDS011;21575;51.538;-0.084;2022-12-18T16:16:59;30.65;;;26.73;;
35456;SDS011;21575;51.538;-0.084;2022-12-18T16:19:28;17.58;;;15.82;;
35456;SDS011;21575;51.538;-0.084;2022-12-18T16:21:55;20.63;;;18.55;;
35456;SDS011;21575;51.538;-0.084;2022-12-18T16:24:26;25.77;;;20.10;;
35456;SDS011;21575;51.538;-0.084;2022-12-18T16:26:55;25.05;;;18.05;;
35456;SDS011;21575;51.538;-0.084;2022-12-18T16:29:23;47.50;;;30.05;;
35456;SDS011;21575;51.538;-0.084;2022-12-18T16:31:52;27.60;;;24.52;;
35456;SDS011;21575;51.538;-0.084;2022-12-18T16:34:26;18.08;;;12.73;;
35456;SDS011;21575;51.538;-0.084;2022-12-18T16:36:56;15.60;;;10.32;;
35456;SDS011;21575;51.538;-0.084;2022-12-18T16:39:24;17.17;;;15.15;;
35456;SDS011;21575;51.538;-0.084;2022-12-18T16:41:51;18.20;;;14.20;;
35456;SDS011;21575;51.538;-0.084;2022-12-18T16:44:17;53.03;;;37.05;;
35456;SDS011;21575;51.538;-0.084;2022-12-18T16:46:42;58.58;;;41.80;;
35456;SDS011;21575;51.538;-0.084;2022-12-18T16:49:10;41.03;;;30.15;;
35456;SDS011;21575;51.538;-0.084;2022-12-18T16:51:36;46.38;;;38.28;;
35456;SDS011;21575;51.538;-0.084;2022-12-18T16:54:02;38.22;;;34.25;;